createdAt,value
2023-02-15T00:01:15.496Z,25.07
2023-02-15T00:03:42.091Z,33.60
2023-02-15T00:06:08.731Z,34.47
2023-02-15T00:08:35.341Z,32.90
2023-02-15T00:11:38.840Z,37.90
2023-02-15T00:14:06.001Z,33.83
2023-02-15T00:16:32.621Z,37.17
2023-02-15T00:19:02.720Z,38.43
2023-02-15T00:21:30.721Z,39.10
2023-02-15T00:23:57.611Z,37.27
2023-02-15T00:26:24.380Z,27.07
2023-02-15T00:28:50.879Z,30.93
2023-02-15T00:31:17.461Z,33.40
2023-02-15T00:33:44.020Z,27.53
2023-02-15T00:36:10.765Z,28.30
2023-02-15T00:38:37.408Z,28.33
2023-02-15T00:41:04.549Z,21.40
2023-02-15T00:43:31.336Z,18.33
2023-02-15T00:45:58.058Z,19.97
2023-02-15T00:48:24.641Z,24.53
2023-02-15T00:50:52.337Z,19.97
2023-02-15T00:53:18.946Z,21.23
2023-02-15T00:55:45.433Z,21.43
2023-02-15T00:58:12.069Z,18.13
2023-02-15T01:00:38.625Z,15.63
2023-02-15T01:03:05.361Z,14.63
2023-02-15T01:05:32.135Z,17.13
2023-02-15T01:07:58.830Z,19.73
2023-02-15T01:10:25.642Z,18.53
2023-02-15T01:12:52.442Z,18.87
2023-02-15T01:15:18.961Z,21.87
2023-02-15T01:17:50.609Z,25.00
2023-02-15T01:20:17.258Z,23.60
2023-02-15T01:22:43.780Z,24.87
2023-02-15T01:25:10.320Z,20.20
2023-02-15T01:27:36.853Z,21.73
2023-02-15T01:30:05.664Z,21.43
2023-02-15T01:32:32.238Z,24.37
2023-02-15T01:34:58.777Z,23.03
2023-02-15T01:37:25.288Z,21.83
2023-02-15T01:39:51.789Z,24.63
2023-02-15T01:42:27.931Z,28.30
2023-02-15T01:44:55.401Z,25.20
2023-02-15T01:47:40.588Z,25.63
2023-02-15T01:50:24.773Z,30.43
2023-02-15T01:52:51.304Z,26.27
2023-02-15T01:55:17.885Z,24.10
2023-02-15T01:57:44.847Z,26.50
2023-02-15T02:00:11.589Z,28.03
2023-02-15T02:02:38.616Z,28.27
2023-02-15T02:05:07.522Z,26.43
2023-02-15T02:07:34.798Z,30.27
2023-02-15T02:10:01.468Z,32.70
2023-02-15T02:12:27.979Z,27.80
2023-02-15T02:14:54.505Z,28.27
2023-02-15T02:17:27.195Z,27.67
2023-02-15T02:20:12.518Z,28.67
2023-02-15T02:22:57.976Z,27.13
2023-02-15T02:25:39.585Z,29.80
2023-02-15T02:28:09.131Z,28.83
2023-02-15T02:31:02.169Z,29.80
2023-02-15T02:33:30.762Z,29.67
2023-02-15T02:36:12.452Z,30.10
2023-02-15T02:38:51.594Z,27.63
2023-02-15T02:41:18.093Z,30.40
2023-02-15T02:43:49.883Z,28.80
2023-02-15T02:46:33.715Z,26.53
2023-02-15T02:49:00.225Z,28.20
2023-02-15T02:51:26.701Z,27.70
2023-02-15T02:53:54.444Z,31.13
2023-02-15T02:56:23.931Z,28.17
2023-02-15T02:58:52.716Z,30.63
2023-02-15T03:01:21.364Z,31.07
2023-02-15T03:03:47.935Z,28.47
2023-02-15T03:06:19.170Z,31.37
2023-02-15T03:08:49.869Z,29.43
2023-02-15T03:11:16.367Z,25.90
2023-02-15T03:13:42.879Z,21.60
2023-02-15T03:16:27.766Z,26.37
2023-02-15T03:18:58.172Z,24.93
2023-02-15T03:21:35.796Z,27.07
2023-02-15T03:24:05.584Z,23.17
2023-02-15T03:26:32.119Z,25.23
2023-02-15T03:28:58.717Z,23.87
2023-02-15T03:31:26.602Z,25.53
2023-02-15T03:33:56.950Z,27.80
2023-02-15T03:36:23.505Z,25.07
2023-02-15T03:38:57.802Z,27.77
2023-02-15T03:41:24.279Z,24.37
2023-02-15T03:43:52.820Z,25.50
2023-02-15T03:46:22.673Z,24.83
2023-02-15T03:48:53.434Z,25.43
2023-02-15T03:51:36.306Z,26.40
2023-02-15T03:54:04.144Z,26.10
2023-02-15T03:56:30.861Z,28.03
2023-02-15T03:59:16.637Z,20.03
2023-02-15T04:02:03.536Z,26.03
2023-02-15T04:04:48.310Z,25.77
2023-02-15T04:07:15.025Z,26.50
2023-02-15T04:10:00.248Z,28.83
2023-02-15T04:12:26.794Z,26.57
2023-02-15T04:15:12.045Z,24.50
2023-02-15T04:17:38.719Z,21.17
2023-02-15T04:20:23.972Z,23.80
2023-02-15T04:23:09.244Z,26.00
2023-02-15T04:25:35.904Z,30.13
2023-02-15T04:28:02.486Z,28.60
2023-02-15T04:30:29.004Z,26.73
2023-02-15T04:32:56.510Z,30.50
2023-02-15T04:35:23.481Z,28.27
2023-02-15T04:37:50.026Z,30.97
2023-02-15T04:40:19.683Z,30.03
2023-02-15T04:42:48.141Z,28.40
2023-02-15T04:45:14.611Z,30.00
2023-02-15T04:47:41.154Z,31.37
2023-02-15T04:50:08.017Z,29.70
2023-02-15T04:52:34.596Z,30.30
2023-02-15T04:55:01.100Z,32.33
2023-02-15T04:57:27.652Z,28.27
2023-02-15T04:59:54.205Z,32.17
2023-02-15T05:02:20.827Z,30.57
2023-02-15T05:04:47.405Z,28.87
2023-02-15T05:07:14.148Z,33.43
2023-02-15T05:09:40.704Z,34.13
2023-02-15T05:12:07.383Z,34.70
2023-02-15T05:14:33.883Z,30.90
2023-02-15T05:17:02.508Z,36.00
2023-02-15T05:19:29.145Z,36.83
2023-02-15T05:21:55.681Z,32.90
2023-02-15T05:24:41.126Z,39.83
2023-02-15T05:27:26.300Z,34.93
2023-02-15T05:29:52.937Z,36.17
2023-02-15T05:32:19.939Z,38.23
2023-02-15T05:34:46.536Z,42.17
2023-02-15T05:37:13.072Z,42.40
2023-02-15T05:39:39.677Z,43.50
2023-02-15T05:42:06.216Z,40.23
2023-02-15T05:44:32.758Z,38.93
2023-02-15T05:46:59.287Z,43.43
2023-02-15T05:49:25.879Z,44.03
2023-02-15T05:51:52.376Z,42.07
2023-02-15T05:54:18.891Z,38.30
2023-02-15T05:56:45.408Z,39.70
2023-02-15T05:59:12.124Z,46.57
2023-02-15T06:01:38.628Z,47.47
2023-02-15T06:04:05.190Z,46.13
2023-02-15T06:06:31.745Z,41.33
2023-02-15T06:08:58.226Z,43.23
2023-02-15T06:11:24.721Z,45.67
2023-02-15T06:13:51.238Z,49.60
2023-02-15T06:16:17.810Z,47.80
2023-02-15T06:18:44.293Z,44.37
2023-02-15T06:21:10.845Z,49.07
2023-02-15T06:23:37.407Z,43.03
2023-02-15T06:26:04.132Z,44.20
2023-02-15T06:28:30.927Z,50.30
2023-02-15T06:30:57.642Z,44.07
2023-02-15T06:33:24.364Z,43.63
2023-02-15T06:35:50.886Z,41.67
2023-02-15T06:38:18.291Z,46.40
2023-02-15T06:40:44.821Z,43.17
2023-02-15T06:43:11.291Z,43.93
2023-02-15T06:45:37.818Z,46.97
2023-02-15T06:48:04.544Z,44.50
2023-02-15T06:50:31.072Z,45.33
2023-02-15T06:53:00.626Z,46.77
2023-02-15T06:55:27.160Z,48.60
2023-02-15T06:57:53.695Z,44.77
2023-02-15T07:00:20.366Z,43.30
2023-02-15T07:02:46.870Z,46.63
2023-02-15T07:05:13.583Z,44.77
2023-02-15T07:07:40.751Z,42.97
2023-02-15T07:10:07.494Z,39.63
2023-02-15T07:12:43.579Z,43.30
2023-02-15T07:15:10.400Z,45.10
2023-02-15T07:17:37.214Z,44.27
2023-02-15T07:20:14.220Z,41.83
2023-02-15T07:22:40.762Z,43.17
2023-02-15T07:25:08.041Z,42.00
2023-02-15T07:27:34.685Z,39.93
2023-02-15T07:30:01.303Z,42.07
2023-02-15T07:32:31.380Z,44.07
2023-02-15T07:34:58.147Z,41.80
2023-02-15T07:37:24.740Z,44.23
2023-02-15T07:39:51.324Z,45.53
2023-02-15T07:42:18.891Z,45.70
2023-02-15T07:44:45.421Z,40.00
2023-02-15T07:47:13.075Z,42.77
2023-02-15T07:49:39.613Z,41.53
2023-02-15T07:52:06.111Z,45.27
2023-02-15T07:54:32.623Z,42.27
2023-02-15T07:56:59.126Z,42.67
2023-02-15T07:59:25.713Z,47.17
2023-02-15T08:01:53.989Z,49.77
2023-02-15T08:04:20.474Z,44.83
2023-02-15T08:06:46.991Z,41.27
2023-02-15T08:09:13.691Z,48.27
2023-02-15T08:11:43.837Z,42.83
2023-02-15T08:14:10.423Z,45.03
2023-02-15T08:16:44.090Z,43.30
2023-02-15T08:19:17.827Z,43.83
2023-02-15T08:21:45.534Z,38.20
2023-02-15T08:24:12.444Z,42.40
2023-02-15T08:26:42.073Z,40.07
2023-02-15T08:29:09.076Z,38.23
2023-02-15T08:31:36.617Z,37.13
2023-02-15T08:34:03.276Z,40.07
2023-02-15T08:36:30.423Z,41.87
2023-02-15T08:39:00.587Z,36.83
2023-02-15T08:41:35.070Z,36.97
2023-02-15T08:44:02.131Z,38.70
2023-02-15T08:46:32.322Z,38.70
2023-02-15T08:48:58.840Z,38.23
2023-02-15T08:51:26.462Z,36.93
2023-02-15T08:53:54.046Z,42.40
2023-02-15T08:56:21.948Z,39.90
2023-02-15T08:58:48.488Z,40.40
2023-02-15T09:01:18.985Z,40.57
2023-02-15T09:03:46.156Z,37.80
2023-02-15T09:06:12.727Z,35.07
2023-02-15T09:08:39.283Z,36.37
2023-02-15T09:11:06.682Z,39.60
2023-02-15T09:13:33.241Z,39.17
2023-02-15T09:16:00.533Z,36.80
2023-02-15T09:18:27.368Z,35.73
2023-02-15T09:20:53.859Z,32.47
2023-02-15T09:23:26.875Z,34.87
2023-02-15T09:25:54.194Z,33.87
2023-02-15T09:28:20.659Z,31.53
2023-02-15T09:30:47.323Z,27.50
2023-02-15T09:33:13.867Z,27.13
2023-02-15T09:35:40.498Z,31.30
2023-02-15T09:38:07.073Z,24.60
2023-02-15T09:40:34.693Z,25.33
2023-02-15T09:43:08.045Z,27.27
2023-02-15T09:45:40.715Z,26.10
2023-02-15T09:48:16.537Z,23.53
2023-02-15T09:50:43.305Z,27.47
2023-02-15T09:53:12.832Z,26.67
2023-02-15T09:55:58.052Z,25.67
2023-02-15T09:58:43.375Z,26.97
2023-02-15T10:01:26.568Z,25.63
2023-02-15T10:03:53.138Z,26.47
2023-02-15T10:06:29.035Z,24.97
2023-02-15T10:09:12.220Z,25.70
2023-02-15T10:11:57.606Z,24.43
2023-02-15T10:14:43.083Z,25.77
2023-02-15T10:17:09.611Z,24.07
2023-02-15T10:19:45.771Z,27.90
2023-02-15T10:22:15.374Z,24.97
2023-02-15T10:25:00.625Z,24.90
2023-02-15T10:27:27.472Z,30.13
2023-02-15T10:30:06.392Z,23.67
2023-02-15T10:32:33.548Z,26.30
2023-02-15T10:35:16.437Z,26.27
2023-02-15T10:37:48.046Z,31.13
2023-02-15T10:40:20.676Z,30.63
2023-02-15T10:42:59.135Z,30.77
2023-02-15T10:45:40.830Z,28.03
2023-02-15T10:48:23.798Z,29.03
2023-02-15T10:50:50.845Z,25.60
2023-02-15T10:53:52.850Z,29.60
2023-02-15T10:56:25.995Z,25.40
2023-02-15T10:58:58.692Z,30.33
2023-02-15T11:01:34.514Z,26.27
2023-02-15T11:04:04.032Z,26.90
2023-02-15T11:06:30.742Z,30.13
2023-02-15T11:09:04.758Z,24.67
2023-02-15T11:11:36.157Z,27.87
2023-02-15T11:14:22.925Z,28.30
2023-02-15T11:16:50.576Z,31.07
2023-02-15T11:19:17.090Z,27.47
2023-02-15T11:21:44.513Z,30.17
2023-02-15T11:24:11.773Z,30.23
2023-02-15T11:26:42.728Z,33.07
2023-02-15T11:29:11.767Z,30.20
2023-02-15T11:31:48.582Z,27.10
2023-02-15T11:34:19.870Z,27.87
2023-02-15T11:36:46.416Z,30.70
2023-02-15T11:39:14.934Z,29.13
2023-02-15T11:41:53.129Z,26.53
2023-02-15T11:44:33.815Z,28.10
2023-02-15T11:47:00.428Z,27.73
2023-02-15T11:49:31.804Z,27.47
2023-02-15T11:51:58.405Z,25.90
2023-02-15T11:54:29.438Z,32.37
2023-02-15T11:57:25.370Z,30.23
2023-02-15T11:59:53.646Z,27.10
2023-02-15T12:02:21.305Z,26.53
2023-02-15T12:04:53.422Z,25.97
2023-02-15T12:07:27.440Z,30.73
2023-02-15T12:10:15.035Z,26.90
2023-02-15T12:12:41.718Z,27.97
2023-02-15T12:15:09.194Z,25.60
2023-02-15T12:17:38.036Z,27.70
2023-02-15T12:20:13.706Z,27.50
2023-02-15T12:22:40.413Z,27.40
2023-02-15T12:25:22.393Z,27.00
2023-02-15T12:27:49.241Z,27.37
2023-02-15T12:30:31.987Z,25.17
2023-02-15T12:33:01.322Z,25.77
2023-02-15T12:35:29.054Z,28.47
2023-02-15T12:38:05.947Z,26.23
2023-02-15T12:40:32.965Z,29.33
2023-02-15T12:42:59.489Z,24.80
2023-02-15T12:45:30.087Z,25.63
2023-02-15T12:48:17.880Z,25.37
2023-02-15T12:50:54.797Z,27.57
2023-02-15T12:53:31.616Z,24.77
2023-02-15T12:55:59.170Z,27.50
2023-02-15T12:58:26.607Z,26.80
2023-02-15T13:01:12.838Z,28.30
2023-02-15T13:03:39.997Z,23.60
2023-02-15T13:06:09.660Z,25.03
2023-02-15T13:08:38.818Z,27.07
2023-02-15T13:11:10.908Z,29.00
2023-02-15T13:13:46.938Z,26.30
2023-02-15T13:16:13.755Z,28.33
2023-02-15T13:18:49.342Z,28.20
2023-02-15T13:21:17.689Z,29.73
2023-02-15T13:23:45.639Z,29.17
2023-02-15T13:26:13.697Z,29.63
2023-02-15T13:28:42.031Z,25.37
2023-02-15T13:31:13.291Z,26.47
2023-02-15T13:33:40.731Z,23.43
2023-02-15T13:36:11.467Z,24.43
2023-02-15T13:38:56.918Z,22.27
2023-02-15T13:41:29.855Z,26.67
2023-02-15T13:44:06.493Z,24.47
2023-02-15T13:46:36.892Z,24.80
2023-02-15T13:49:22.260Z,23.07
2023-02-15T13:51:48.784Z,23.50
2023-02-15T13:54:34.317Z,27.40
2023-02-15T13:57:04.184Z,24.53
2023-02-15T13:59:33.754Z,24.97
2023-02-15T14:02:23.354Z,23.60
2023-02-15T14:04:50.415Z,22.87
2023-02-15T14:07:17.016Z,24.20
2023-02-15T14:09:58.167Z,23.47
2023-02-15T14:12:35.166Z,22.93
2023-02-15T14:15:14.657Z,23.83
2023-02-15T14:17:41.399Z,23.80
2023-02-15T14:20:27.051Z,20.47
2023-02-15T14:23:14.274Z,22.43
2023-02-15T14:25:42.619Z,18.80
2023-02-15T14:28:24.638Z,20.60
2023-02-15T14:30:51.468Z,20.80
2023-02-15T14:33:26.766Z,20.27
2023-02-15T14:35:53.698Z,19.43
2023-02-15T14:38:39.371Z,21.67
2023-02-15T14:41:10.879Z,21.07
2023-02-15T14:43:56.417Z,23.50
2023-02-15T14:46:25.680Z,22.67
2023-02-15T14:48:52.342Z,23.27
2023-02-15T14:51:37.784Z,22.37
2023-02-15T14:54:04.343Z,25.73
2023-02-15T14:56:30.996Z,25.70
2023-02-15T14:58:58.120Z,28.10
2023-02-15T15:01:31.580Z,26.60
2023-02-15T15:03:59.675Z,27.07
2023-02-15T15:06:30.445Z,27.57
2023-02-15T15:09:00.757Z,25.57
2023-02-15T15:11:42.478Z,26.77
2023-02-15T15:14:10.478Z,29.43
2023-02-15T15:16:37.047Z,31.27
2023-02-15T15:19:10.496Z,25.00
2023-02-15T15:22:04.208Z,29.30
2023-02-15T15:24:40.071Z,32.93
2023-02-15T15:27:25.557Z,31.33
2023-02-15T15:29:52.189Z,29.33
2023-02-15T15:32:19.871Z,30.90
2023-02-15T15:35:02.333Z,37.17
2023-02-15T15:37:38.466Z,36.53
2023-02-15T15:40:19.239Z,32.77
2023-02-15T15:43:04.723Z,37.27
2023-02-15T15:45:40.228Z,37.60
2023-02-15T15:48:25.245Z,36.93
2023-02-15T15:50:57.986Z,35.93
2023-02-15T15:53:25.079Z,36.40
2023-02-15T15:55:52.200Z,38.53
2023-02-15T15:58:19.207Z,40.30
2023-02-15T16:01:00.617Z,38.87
2023-02-15T16:03:28.055Z,41.10
2023-02-15T16:06:01.259Z,39.03
2023-02-15T16:08:28.824Z,43.93
2023-02-15T16:10:55.351Z,43.03
2023-02-15T16:13:21.990Z,43.60
2023-02-15T16:15:53.489Z,46.90
2023-02-15T16:18:21.707Z,57.70
2023-02-15T16:20:55.878Z,61.80
2023-02-15T16:23:28.706Z,68.83
2023-02-15T16:26:13.933Z,63.20
2023-02-15T16:28:40.648Z,67.37
2023-02-15T16:31:16.494Z,73.07
2023-02-15T16:33:43.572Z,70.07
2023-02-15T16:36:14.155Z,69.33
2023-02-15T16:38:43.785Z,67.40
2023-02-15T16:41:14.087Z,66.03
2023-02-15T16:43:40.852Z,69.50
2023-02-15T16:46:08.616Z,81.63
2023-02-15T16:48:35.366Z,81.33
2023-02-15T16:51:02.294Z,74.47
2023-02-15T16:53:29.222Z,68.77
2023-02-15T16:55:56.664Z,72.20
2023-02-15T16:58:26.594Z,77.53
2023-02-15T17:00:53.087Z,82.97
2023-02-15T17:03:24.207Z,82.63
2023-02-15T17:05:54.965Z,81.03
2023-02-15T17:08:28.794Z,87.50
2023-02-15T17:11:03.615Z,89.00
2023-02-15T17:13:30.431Z,94.97
2023-02-15T17:16:03.287Z,98.17
2023-02-15T17:18:35.047Z,85.87
2023-02-15T17:21:02.808Z,99.47
2023-02-15T17:23:33.029Z,94.23
2023-02-15T17:25:59.806Z,111.17
2023-02-15T17:28:27.505Z,107.50
2023-02-15T17:30:54.832Z,116.00
2023-02-15T17:33:29.969Z,111.00
2023-02-15T17:36:03.247Z,108.63
2023-02-15T17:38:29.753Z,103.67
2023-02-15T17:40:57.422Z,106.93
2023-02-15T17:43:24.019Z,107.83
2023-02-15T17:45:51.033Z,105.10
2023-02-15T17:48:32.052Z,106.23
2023-02-15T17:51:02.128Z,100.87
2023-02-15T17:53:28.790Z,87.30
2023-02-15T17:55:55.263Z,83.90
2023-02-15T17:58:22.676Z,85.53
2023-02-15T18:01:07.969Z,84.37
2023-02-15T18:04:08.820Z,77.27
2023-02-15T18:06:54.597Z,78.20
2023-02-15T18:09:40.477Z,77.10
2023-02-15T18:12:20.493Z,73.60
2023-02-15T18:14:47.288Z,64.90
2023-02-15T18:17:14.141Z,65.57
2023-02-15T18:19:41.281Z,63.87
2023-02-15T18:22:14.772Z,58.20
2023-02-15T18:24:41.500Z,58.77
2023-02-15T18:27:08.158Z,63.03
2023-02-15T18:29:34.624Z,58.37
2023-02-15T18:32:01.345Z,61.13
2023-02-15T18:34:27.871Z,56.60
2023-02-15T18:36:54.462Z,60.73
2023-02-15T18:39:47.487Z,54.57
2023-02-15T18:42:23.259Z,63.60
2023-02-15T18:44:50.462Z,59.13
2023-02-15T18:47:16.960Z,57.23
2023-02-15T18:49:43.551Z,58.87
2023-02-15T18:52:16.868Z,59.77
2023-02-15T18:54:43.612Z,60.57
2023-02-15T18:57:10.159Z,60.97
2023-02-15T18:59:36.716Z,58.67
2023-02-15T19:02:03.339Z,63.93
2023-02-15T19:04:29.953Z,62.57
2023-02-15T19:06:56.428Z,68.93
2023-02-15T19:09:23.320Z,62.30
2023-02-15T19:11:50.959Z,65.77
2023-02-15T19:14:23.583Z,66.23
2023-02-15T19:16:50.140Z,70.73
2023-02-15T19:19:16.718Z,58.20
2023-02-15T19:21:43.226Z,65.40
2023-02-15T19:24:12.772Z,62.57
2023-02-15T19:26:45.371Z,63.87
2023-02-15T19:29:13.210Z,62.83
2023-02-15T19:31:39.963Z,64.67
2023-02-15T19:34:16.356Z,65.10
2023-02-15T19:36:43.573Z,69.23
2023-02-15T19:39:17.788Z,67.57
2023-02-15T19:41:44.256Z,69.13
2023-02-15T19:44:10.791Z,68.90
2023-02-15T19:46:38.634Z,75.87
2023-02-15T19:49:05.400Z,75.23
2023-02-15T19:51:31.884Z,71.00
2023-02-15T19:53:58.420Z,74.50
2023-02-15T19:56:25.196Z,70.80
2023-02-15T19:58:52.514Z,71.20
2023-02-15T20:01:19.435Z,76.50
2023-02-15T20:03:45.910Z,68.30
2023-02-15T20:06:15.711Z,72.90
2023-02-15T20:08:42.707Z,77.73
2023-02-15T20:11:10.211Z,73.47
2023-02-15T20:13:36.738Z,81.50
2023-02-15T20:16:05.959Z,85.43
2023-02-15T20:18:32.486Z,85.57
2023-02-15T20:20:59.406Z,81.50
2023-02-15T20:23:28.994Z,82.90
2023-02-15T20:26:00.666Z,78.37
2023-02-15T20:28:29.350Z,71.90
2023-02-15T20:30:56.005Z,74.47
2023-02-15T20:33:22.919Z,74.57
2023-02-15T20:35:49.684Z,74.57
2023-02-15T20:38:18.065Z,69.97
2023-02-15T20:41:05.119Z,77.57
2023-02-15T20:43:31.921Z,77.77
2023-02-15T20:45:58.452Z,83.47
2023-02-15T20:48:24.973Z,86.60
2023-02-15T20:50:53.509Z,95.23
2023-02-15T20:53:20.925Z,98.90
2023-02-15T20:55:47.486Z,113.73
2023-02-15T20:58:23.129Z,100.33
2023-02-15T21:00:49.683Z,97.07
2023-02-15T21:03:16.223Z,106.17
2023-02-15T21:05:45.474Z,96.93
2023-02-15T21:08:12.311Z,94.80
2023-02-15T21:10:38.871Z,100.10
2023-02-15T21:13:05.893Z,100.47
2023-02-15T21:15:36.172Z,101.77
2023-02-15T21:18:04.012Z,107.60
2023-02-15T21:20:30.993Z,110.20
2023-02-15T21:22:57.802Z,132.47
2023-02-15T21:25:32.129Z,151.20
2023-02-15T21:27:58.692Z,143.23
2023-02-15T21:30:25.412Z,133.60
2023-02-15T21:32:51.999Z,135.77
2023-02-15T21:35:18.777Z,136.63
2023-02-15T21:37:45.490Z,122.70
2023-02-15T21:40:15.285Z,123.43
2023-02-15T21:43:00.432Z,126.17
2023-02-15T21:45:45.513Z,127.93
2023-02-15T21:48:11.988Z,128.80
2023-02-15T21:50:57.143Z,127.90
2023-02-15T21:53:33.838Z,125.30
2023-02-15T21:56:01.242Z,120.53
2023-02-15T21:58:29.274Z,131.87
2023-02-15T22:00:56.665Z,116.53
2023-02-15T22:03:23.761Z,123.40
2023-02-15T22:05:50.291Z,118.53
2023-02-15T22:08:16.899Z,114.17
2023-02-15T22:10:43.575Z,116.63
2023-02-15T22:13:13.057Z,117.83
2023-02-15T22:15:39.550Z,118.40
2023-02-15T22:18:06.138Z,117.20
2023-02-15T22:20:32.830Z,117.40
2023-02-15T22:22:59.337Z,106.63
2023-02-15T22:25:25.974Z,109.50
2023-02-15T22:27:53.127Z,108.23
2023-02-15T22:30:26.745Z,116.67
2023-02-15T22:32:53.903Z,121.97
2023-02-15T22:35:39.608Z,131.23
2023-02-15T22:38:06.118Z,128.83
2023-02-15T22:40:32.933Z,144.27
2023-02-15T22:43:03.016Z,123.47
2023-02-15T22:45:29.847Z,128.57
2023-02-15T22:47:59.629Z,118.57
2023-02-15T22:50:27.286Z,106.40
2023-02-15T22:52:53.860Z,109.67
2023-02-15T22:55:22.444Z,107.57
2023-02-15T22:57:49.444Z,106.80
2023-02-15T23:00:19.882Z,104.87
2023-02-15T23:02:46.506Z,95.97
2023-02-15T23:05:20.228Z,105.80
2023-02-15T23:07:47.172Z,96.50
2023-02-15T23:10:21.305Z,94.23
2023-02-15T23:13:10.097Z,93.60
2023-02-15T23:15:36.670Z,87.90
2023-02-15T23:18:18.146Z,89.30
2023-02-15T23:20:52.132Z,84.73
2023-02-15T23:23:18.747Z,85.80
2023-02-15T23:25:45.339Z,85.97
2023-02-15T23:28:25.253Z,82.80
2023-02-15T23:30:51.829Z,83.00
2023-02-15T23:33:19.426Z,78.83
2023-02-15T23:35:45.960Z,82.23
2023-02-15T23:38:17.451Z,76.57
2023-02-15T23:41:03.500Z,78.40
2023-02-15T23:43:30.936Z,80.57
2023-02-15T23:45:57.508Z,75.73
2023-02-15T23:48:30.815Z,68.60
2023-02-15T23:50:57.654Z,69.53
2023-02-15T23:53:24.186Z,66.53
2023-02-15T23:55:50.706Z,70.97
2023-02-15T23:58:18.153Z,74.00
